createdAt,value
2023-10-10T00:01:19.353Z,79.27
2023-10-10T00:04:03.809Z,79.32
2023-10-10T00:06:43.431Z,79.31
2023-10-10T00:09:21.127Z,79.25
2023-10-10T00:11:54.841Z,79.29
2023-10-10T00:14:30.137Z,79.29
2023-10-10T00:17:02.930Z,79.29
2023-10-10T00:19:44.268Z,79.23
2023-10-10T00:22:22.496Z,79.21
2023-10-10T00:24:54.526Z,79.20
2023-10-10T00:27:26.429Z,79.25
2023-10-10T00:30:03.289Z,79.21
2023-10-10T00:32:37.268Z,79.13
2023-10-10T00:35:11.896Z,79.20
2023-10-10T00:37:46.356Z,79.25
2023-10-10T00:40:26.666Z,79.19
2023-10-10T00:42:59.858Z,79.29
2023-10-10T00:45:36.902Z,79.28
2023-10-10T00:48:10.846Z,79.33
2023-10-10T00:50:49.554Z,79.44
2023-10-10T00:53:23.330Z,79.57
2023-10-10T00:55:58.752Z,79.45
2023-10-10T00:58:37.989Z,79.46
2023-10-10T01:01:13.829Z,79.61
2023-10-10T01:03:51.639Z,79.65
2023-10-10T01:06:27.398Z,79.65
2023-10-10T01:09:01.280Z,79.72
2023-10-10T01:11:33.518Z,79.48
2023-10-10T01:14:05.742Z,79.41
2023-10-10T01:16:41.754Z,79.42
2023-10-10T01:19:17.441Z,79.47
2023-10-10T01:21:59.097Z,79.49
2023-10-10T01:24:32.796Z,79.58
2023-10-10T01:27:17.135Z,79.58
2023-10-10T01:29:57.465Z,79.58
2023-10-10T01:32:30.719Z,79.50
2023-10-10T01:35:03.313Z,79.62
2023-10-10T01:37:42.357Z,79.69
2023-10-10T01:40:18.121Z,79.70
2023-10-10T01:42:55.647Z,79.62
2023-10-10T01:45:31.138Z,79.58
2023-10-10T01:48:09.534Z,79.70
2023-10-10T01:50:42.458Z,79.64
2023-10-10T01:53:14.348Z,79.88
2023-10-10T01:55:49.184Z,79.96
2023-10-10T01:58:21.728Z,79.81
2023-10-10T02:00:55.805Z,79.64
2023-10-10T02:03:29.156Z,79.73
2023-10-10T02:06:01.208Z,79.56
2023-10-10T02:08:36.342Z,79.53
2023-10-10T02:11:13.792Z,79.45
2023-10-10T02:13:48.628Z,79.48
2023-10-10T02:16:26.023Z,79.31
2023-10-10T02:19:00.619Z,79.30
2023-10-10T02:21:44.586Z,79.55
2023-10-10T02:24:39.909Z,79.45
2023-10-10T02:27:14.600Z,79.50
2023-10-10T02:29:50.956Z,79.55
2023-10-10T02:32:24.041Z,79.66
2023-10-10T02:35:16.133Z,79.55
2023-10-10T02:37:48.546Z,79.76
2023-10-10T02:40:32.217Z,79.68
2023-10-10T02:43:32.527Z,79.62
2023-10-10T02:46:07.155Z,79.74
2023-10-10T02:48:43.615Z,79.78
2023-10-10T02:51:17.378Z,79.82
2023-10-10T02:53:49.417Z,79.84
2023-10-10T02:56:21.583Z,79.90
2023-10-10T02:58:55.789Z,79.90
2023-10-10T03:01:53.075Z,80.00
2023-10-10T03:04:42.492Z,79.87
2023-10-10T03:07:28.908Z,79.98
2023-10-10T03:10:24.087Z,79.98
2023-10-10T03:13:09.595Z,80.11
2023-10-10T03:15:51.309Z,80.00
2023-10-10T03:18:30.182Z,79.89
2023-10-10T03:21:37.180Z,79.92
2023-10-10T03:24:16.902Z,80.03
2023-10-10T03:27:02.026Z,80.05
2023-10-10T03:29:48.424Z,80.15
2023-10-10T03:32:32.418Z,80.25
2023-10-10T03:35:14.689Z,80.30
2023-10-10T03:37:55.436Z,80.37
2023-10-10T03:40:48.707Z,80.27
2023-10-10T03:43:38.137Z,80.19
2023-10-10T03:46:27.297Z,80.17
2023-10-10T03:49:16.920Z,80.41
2023-10-10T03:52:07.346Z,80.40
2023-10-10T03:54:57.195Z,80.43
2023-10-10T03:57:47.287Z,80.38
2023-10-10T04:00:36.938Z,80.26
2023-10-10T04:03:27.263Z,80.49
2023-10-10T04:06:25.186Z,80.50
2023-10-10T04:09:15.672Z,80.41
2023-10-10T04:12:05.043Z,80.45
2023-10-10T04:14:54.515Z,80.39
2023-10-10T04:17:46.001Z,80.60
2023-10-10T04:20:35.168Z,80.73
2023-10-10T04:23:24.746Z,80.64
2023-10-10T04:26:13.849Z,80.64
2023-10-10T04:29:02.965Z,80.68
2023-10-10T04:31:52.511Z,80.74
2023-10-10T04:34:41.790Z,80.67
2023-10-10T04:37:31.312Z,80.73
2023-10-10T04:40:20.818Z,80.73
2023-10-10T04:43:10.813Z,80.72
2023-10-10T04:46:00.263Z,80.86
2023-10-10T04:48:53.900Z,80.88
2023-10-10T04:51:43.905Z,80.94
2023-10-10T04:54:33.550Z,80.92
2023-10-10T04:57:22.931Z,80.94
2023-10-10T05:00:12.495Z,80.81
2023-10-10T05:03:02.041Z,80.80
2023-10-10T05:05:51.723Z,80.63
2023-10-10T05:08:40.973Z,80.68
2023-10-10T05:11:30.841Z,80.71
2023-10-10T05:14:26.006Z,80.72
2023-10-10T05:17:15.800Z,80.70
2023-10-10T05:20:05.685Z,80.75
2023-10-10T05:22:57.012Z,80.67
2023-10-10T05:25:33.267Z,80.68
2023-10-10T05:28:05.719Z,80.76
2023-10-10T05:30:46.962Z,80.62
2023-10-10T05:33:21.085Z,80.60
2023-10-10T05:36:00.582Z,80.70
2023-10-10T05:38:32.577Z,80.64
2023-10-10T05:41:12.772Z,80.80
2023-10-10T05:43:45.089Z,80.60
2023-10-10T05:46:17.305Z,80.67
2023-10-10T05:48:49.568Z,80.84
2023-10-10T05:51:21.465Z,80.79
2023-10-10T05:53:52.092Z,80.78
2023-10-10T05:56:25.020Z,80.85
2023-10-10T05:58:57.755Z,80.83
2023-10-10T06:01:32.852Z,80.93
2023-10-10T06:04:04.820Z,80.91
2023-10-10T06:06:37.981Z,80.85
2023-10-10T06:09:27.659Z,81.05
2023-10-10T06:12:05.450Z,81.12
2023-10-10T06:14:37.932Z,81.09
2023-10-10T06:17:13.649Z,81.25
2023-10-10T06:19:48.261Z,81.18
2023-10-10T06:22:20.270Z,81.23
2023-10-10T06:24:57.501Z,81.06
2023-10-10T06:27:30.066Z,81.08
2023-10-10T06:30:02.249Z,81.07
2023-10-10T06:32:34.522Z,81.01
2023-10-10T06:35:27.983Z,81.07
2023-10-10T06:37:59.961Z,81.02
2023-10-10T06:40:31.954Z,80.92
2023-10-10T06:43:09.190Z,81.05
2023-10-10T06:45:42.348Z,80.83
2023-10-10T06:48:18.016Z,80.92
2023-10-10T06:50:51.988Z,81.08
2023-10-10T06:53:36.891Z,81.07
2023-10-10T06:56:20.364Z,81.19
2023-10-10T06:59:28.669Z,81.17
2023-10-10T07:02:14.193Z,81.30
2023-10-10T07:04:53.726Z,81.24
2023-10-10T07:07:27.778Z,81.35
2023-10-10T07:10:00.571Z,81.36
2023-10-10T07:12:33.081Z,81.47
2023-10-10T07:15:07.824Z,81.53
2023-10-10T07:17:40.381Z,81.81
2023-10-10T07:20:31.152Z,81.89
2023-10-10T07:23:04.122Z,81.81
2023-10-10T07:25:45.274Z,81.74
2023-10-10T07:28:19.056Z,81.63
2023-10-10T07:30:52.016Z,81.63
2023-10-10T07:33:27.647Z,81.67
2023-10-10T07:36:01.590Z,81.71
2023-10-10T07:38:36.883Z,81.59
2023-10-10T07:41:09.945Z,81.69
2023-10-10T07:43:43.548Z,81.92
2023-10-10T07:46:18.878Z,81.90
2023-10-10T07:48:55.578Z,81.75
2023-10-10T07:51:33.389Z,81.85
2023-10-10T07:54:14.046Z,82.02
2023-10-10T07:56:49.033Z,81.65
2023-10-10T07:59:23.866Z,81.40
2023-10-10T08:01:57.789Z,81.73
2023-10-10T08:04:30.024Z,81.75
2023-10-10T08:07:05.433Z,81.67
2023-10-10T08:09:38.660Z,81.74
2023-10-10T08:12:10.672Z,81.72
2023-10-10T08:14:46.178Z,81.88
2023-10-10T08:17:21.286Z,81.73
2023-10-10T08:19:53.180Z,81.75
2023-10-10T08:22:30.398Z,81.71
2023-10-10T08:25:02.346Z,81.71
2023-10-10T08:27:35.580Z,81.70
2023-10-10T08:30:14.914Z,81.69
2023-10-10T08:32:50.303Z,82.02
2023-10-10T08:35:24.127Z,82.01
2023-10-10T08:37:57.856Z,81.81
2023-10-10T08:40:37.051Z,81.85
2023-10-10T08:43:10.396Z,81.80
2023-10-10T08:45:51.327Z,81.82
2023-10-10T08:48:27.736Z,81.81
2023-10-10T08:51:05.234Z,81.74
2023-10-10T08:53:40.952Z,81.67
2023-10-10T08:56:16.860Z,81.70
2023-10-10T08:58:49.536Z,81.73
2023-10-10T09:01:23.702Z,81.75
2023-10-10T09:03:58.822Z,81.80
2023-10-10T09:06:47.115Z,81.83
2023-10-10T09:09:38.741Z,81.92
2023-10-10T09:12:16.501Z,81.79
2023-10-10T09:14:51.558Z,81.95
2023-10-10T09:17:34.211Z,81.98
2023-10-10T09:20:19.131Z,82.10
2023-10-10T09:22:53.465Z,82.05
2023-10-10T09:25:27.916Z,81.95
2023-10-10T09:28:05.304Z,81.24
2023-10-10T09:30:42.121Z,81.54
2023-10-10T09:33:24.597Z,81.49
2023-10-10T09:36:10.084Z,81.64
2023-10-10T09:38:47.065Z,81.78
2023-10-10T09:41:37.391Z,81.76
2023-10-10T09:44:38.435Z,81.28
2023-10-10T09:47:38.458Z,81.16
2023-10-10T09:50:36.652Z,80.42
2023-10-10T09:53:21.836Z,80.93
2023-10-10T09:55:55.787Z,80.68
2023-10-10T09:58:29.827Z,80.86
2023-10-10T10:01:15.903Z,80.64
2023-10-10T10:04:04.448Z,80.47
2023-10-10T10:07:07.491Z,80.18
2023-10-10T10:10:20.094Z,79.07
2023-10-10T10:13:15.292Z,79.66
2023-10-10T10:16:10.082Z,79.85
2023-10-10T10:18:48.037Z,79.43
2023-10-10T10:21:32.721Z,79.11
2023-10-10T10:24:28.010Z,78.33
2023-10-10T10:27:26.083Z,77.13
2023-10-10T10:30:11.949Z,78.03
2023-10-10T10:32:45.937Z,77.27
2023-10-10T10:35:23.243Z,77.73
2023-10-10T10:38:01.625Z,76.73
2023-10-10T10:40:47.809Z,75.54
2023-10-10T10:43:34.092Z,76.75
2023-10-10T10:46:16.995Z,77.03
2023-10-10T10:52:20.772Z,77.02
2023-10-10T10:55:22.168Z,77.19
2023-10-10T10:58:07.497Z,77.34
2023-10-10T11:03:46.231Z,75.51
2023-10-10T11:06:26.087Z,76.04
2023-10-10T11:09:10.951Z,76.56
2023-10-10T11:11:43.203Z,74.79
2023-10-10T11:14:20.665Z,74.22
2023-10-10T11:16:58.565Z,72.98
2023-10-10T11:19:41.087Z,72.99
2023-10-10T11:22:18.546Z,74.24
2023-10-10T11:24:59.129Z,74.09
2023-10-10T11:27:31.255Z,73.94
2023-10-10T11:30:09.404Z,74.25
2023-10-10T11:32:48.775Z,73.10
2023-10-10T11:35:28.314Z,74.07
2023-10-10T11:38:07.856Z,73.48
2023-10-10T11:40:44.700Z,73.96
2023-10-10T11:43:18.737Z,71.89
2023-10-10T11:45:55.277Z,73.50
2023-10-10T11:48:30.911Z,73.03
2023-10-10T11:51:02.776Z,72.47
2023-10-10T11:53:38.290Z,72.67
2023-10-10T11:56:18.026Z,72.55
2023-10-10T11:58:50.883Z,70.82
2023-10-10T12:01:48.900Z,70.83
2023-10-10T12:04:33.319Z,71.01
2023-10-10T12:07:08.033Z,71.45
2023-10-10T12:09:40.121Z,72.42
2023-10-10T12:12:11.988Z,72.62
2023-10-10T12:14:44.267Z,72.06
2023-10-10T12:17:18.724Z,72.76
2023-10-10T12:19:51.319Z,72.55
2023-10-10T12:22:23.989Z,72.48
2023-10-10T12:24:56.556Z,72.47
2023-10-10T12:27:31.503Z,71.87
2023-10-10T12:30:06.247Z,71.56
2023-10-10T12:32:38.284Z,72.00
2023-10-10T12:35:12.435Z,72.10
2023-10-10T12:37:46.178Z,72.37
2023-10-10T12:40:18.507Z,72.01
2023-10-10T12:42:50.494Z,70.39
2023-10-10T12:45:22.360Z,70.61
2023-10-10T12:47:54.636Z,71.36
2023-10-10T12:50:28.165Z,71.85
2023-10-10T12:53:09.026Z,71.96
2023-10-10T12:55:50.132Z,70.57
2023-10-10T12:58:26.175Z,71.66
2023-10-10T13:00:59.650Z,71.92
2023-10-10T13:03:32.832Z,70.34
2023-10-10T13:06:05.871Z,71.70
2023-10-10T13:08:40.863Z,71.90
2023-10-10T13:11:16.498Z,72.01
2023-10-10T13:13:50.325Z,71.62
2023-10-10T13:16:26.725Z,71.78
2023-10-10T13:19:00.042Z,72.06
2023-10-10T13:21:32.013Z,72.05
2023-10-10T13:24:04.572Z,72.09
2023-10-10T13:26:37.602Z,72.16
2023-10-10T13:29:10.265Z,71.96
2023-10-10T13:31:42.590Z,71.68
2023-10-10T13:34:18.334Z,71.38
2023-10-10T13:36:51.047Z,71.91
2023-10-10T13:39:34.713Z,71.96
2023-10-10T13:42:07.827Z,72.07
2023-10-10T13:44:40.569Z,70.34
2023-10-10T13:47:13.231Z,71.45
2023-10-10T13:49:46.614Z,71.61
2023-10-10T13:52:18.564Z,71.71
2023-10-10T13:54:53.313Z,71.52
2023-10-10T13:57:25.252Z,71.09
2023-10-10T13:59:58.205Z,71.79
2023-10-10T14:02:32.841Z,71.90
2023-10-10T14:05:07.561Z,71.77
2023-10-10T14:07:40.172Z,72.01
2023-10-10T14:10:12.641Z,72.25
2023-10-10T14:12:45.477Z,72.26
2023-10-10T14:15:19.852Z,71.83
2023-10-10T14:17:53.306Z,72.42
2023-10-10T14:20:26.484Z,72.45
2023-10-10T14:22:58.308Z,72.39
2023-10-10T14:25:38.665Z,72.50
2023-10-10T14:28:11.467Z,72.59
2023-10-10T14:30:43.563Z,72.52
2023-10-10T14:33:15.896Z,72.70
2023-10-10T14:35:48.320Z,72.82
2023-10-10T14:38:20.771Z,72.89
2023-10-10T14:40:52.895Z,73.07
2023-10-10T14:43:24.892Z,73.13
2023-10-10T14:45:58.259Z,73.14
2023-10-10T14:48:31.562Z,73.13
2023-10-10T14:51:07.166Z,73.13
2023-10-10T14:53:39.292Z,72.97
2023-10-10T14:56:12.418Z,73.12
2023-10-10T14:58:44.430Z,73.40
2023-10-10T15:01:19.239Z,73.46
2023-10-10T15:03:51.667Z,73.39
2023-10-10T15:06:30.160Z,73.24
2023-10-10T15:09:02.827Z,73.40
2023-10-10T15:11:35.393Z,73.29
2023-10-10T15:14:08.187Z,73.24
2023-10-10T15:16:41.087Z,73.41
2023-10-10T15:19:13.126Z,73.48
2023-10-10T15:21:49.827Z,73.46
2023-10-10T15:24:24.826Z,73.51
2023-10-10T15:26:57.493Z,73.55
2023-10-10T15:29:32.793Z,73.58
2023-10-10T15:32:05.877Z,73.75
2023-10-10T15:34:42.067Z,73.75
2023-10-10T15:37:16.923Z,73.88
2023-10-10T15:39:49.495Z,73.95
2023-10-10T15:42:22.421Z,74.06
2023-10-10T15:44:55.441Z,74.03
2023-10-10T15:47:28.819Z,74.10
2023-10-10T15:50:01.918Z,74.18
2023-10-10T15:52:35.063Z,74.17
2023-10-10T15:55:12.203Z,74.15
2023-10-10T15:57:44.343Z,74.14
2023-10-10T16:00:18.430Z,74.14
2023-10-10T16:02:54.060Z,74.22
2023-10-10T16:05:26.701Z,74.37
2023-10-10T16:08:08.902Z,74.28
2023-10-10T16:10:43.030Z,74.42
2023-10-10T16:13:15.317Z,74.54
2023-10-10T16:15:47.240Z,74.56
2023-10-10T16:18:20.475Z,74.55
2023-10-10T16:20:53.713Z,74.76
2023-10-10T16:23:25.901Z,74.61
2023-10-10T16:25:58.884Z,74.72
2023-10-10T16:28:32.125Z,74.64
2023-10-10T16:31:12.333Z,74.70
2023-10-10T16:33:44.289Z,74.77
2023-10-10T16:36:19.418Z,74.72
2023-10-10T16:38:53.279Z,74.67
2023-10-10T16:41:25.666Z,74.65
2023-10-10T16:44:01.715Z,74.62
2023-10-10T16:46:34.230Z,74.62
2023-10-10T16:49:07.501Z,74.79
2023-10-10T16:51:39.327Z,74.89
2023-10-10T16:54:14.147Z,74.89
2023-10-10T16:56:46.119Z,74.98
2023-10-10T16:59:18.250Z,74.97
2023-10-10T17:01:50.793Z,75.07
2023-10-10T17:04:25.928Z,75.19
2023-10-10T17:07:00.168Z,75.24
2023-10-10T17:09:36.972Z,75.24
2023-10-10T17:12:09.453Z,75.36
2023-10-10T17:14:41.385Z,75.39
2023-10-10T17:17:16.215Z,75.57
2023-10-10T17:19:47.976Z,75.57
2023-10-10T17:22:19.838Z,75.57
2023-10-10T17:24:51.655Z,75.62
2023-10-10T17:27:23.441Z,75.65
2023-10-10T17:29:58.319Z,75.90
2023-10-10T17:32:30.466Z,76.08
2023-10-10T17:35:05.933Z,76.09
2023-10-10T17:37:37.894Z,76.24
2023-10-10T17:40:14.788Z,76.36
2023-10-10T17:42:48.576Z,76.41
2023-10-10T17:45:20.782Z,76.35
2023-10-10T17:47:53.519Z,76.42
2023-10-10T17:50:25.622Z,76.41
2023-10-10T17:52:58.233Z,76.49
2023-10-10T17:55:29.995Z,76.45
2023-10-10T17:58:04.564Z,76.41
2023-10-10T18:00:36.531Z,76.50
2023-10-10T18:03:10.204Z,76.50
2023-10-10T18:05:44.312Z,76.60
2023-10-10T18:08:17.938Z,76.51
2023-10-10T18:10:49.840Z,76.61
2023-10-10T18:13:21.671Z,76.70
2023-10-10T18:15:53.934Z,76.73
2023-10-10T18:18:30.154Z,76.76
2023-10-10T18:21:02.301Z,76.84
2023-10-10T18:23:34.167Z,76.82
2023-10-10T18:26:14.025Z,76.81
2023-10-10T18:28:46.157Z,76.87
2023-10-10T18:31:18.450Z,77.02
2023-10-10T18:33:53.265Z,76.99
2023-10-10T18:36:25.405Z,77.09
2023-10-10T18:39:01.612Z,77.05
2023-10-10T18:41:34.035Z,76.99
2023-10-10T18:44:06.229Z,77.13
2023-10-10T18:46:38.997Z,77.16
2023-10-10T18:49:10.857Z,77.08
2023-10-10T18:51:41.176Z,77.18
2023-10-10T18:54:13.672Z,77.07
2023-10-10T18:56:46.355Z,77.11
2023-10-10T18:59:18.305Z,76.99
2023-10-10T19:01:51.693Z,77.02
2023-10-10T19:04:23.608Z,77.03
2023-10-10T19:06:55.893Z,77.11
2023-10-10T19:09:27.713Z,77.12
2023-10-10T19:11:59.562Z,77.14
2023-10-10T19:14:35.801Z,77.11
2023-10-10T19:17:07.670Z,77.24
2023-10-10T19:19:39.951Z,77.31
2023-10-10T19:22:11.752Z,77.21
2023-10-10T19:24:43.490Z,77.22
2023-10-10T19:27:13.758Z,77.26
2023-10-10T19:29:46.261Z,77.26
2023-10-10T19:32:19.854Z,77.33
2023-10-10T19:34:51.637Z,77.30
2023-10-10T19:37:21.848Z,77.32
2023-10-10T19:39:56.281Z,77.28
2023-10-10T19:42:29.886Z,77.23
2023-10-10T19:45:14.834Z,77.33
2023-10-10T19:47:58.856Z,77.39
2023-10-10T19:50:30.924Z,77.48
2023-10-10T19:53:03.836Z,77.38
2023-10-10T19:55:38.863Z,77.53
2023-10-10T19:58:11.031Z,77.54
2023-10-10T20:00:47.091Z,77.69
2023-10-10T20:03:23.546Z,77.83
2023-10-10T20:05:56.410Z,77.93
2023-10-10T20:08:30.410Z,77.99
2023-10-10T20:11:04.817Z,77.94
2023-10-10T20:13:36.901Z,77.91
2023-10-10T20:16:16.341Z,78.05
2023-10-10T20:18:49.217Z,78.10
2023-10-10T20:21:21.166Z,78.35
2023-10-10T20:23:53.090Z,78.32
2023-10-10T20:26:26.958Z,78.33
2023-10-10T20:28:59.092Z,78.33
2023-10-10T20:31:30.878Z,78.66
2023-10-10T20:34:01.096Z,78.81
2023-10-10T20:36:36.217Z,78.75
2023-10-10T20:39:08.206Z,78.64
2023-10-10T20:41:40.081Z,78.78
2023-10-10T20:44:11.064Z,78.75
2023-10-10T20:46:43.023Z,78.72
2023-10-10T20:49:17.198Z,78.84
2023-10-10T20:51:55.997Z,79.04
2023-10-10T20:54:28.493Z,79.16
2023-10-10T20:57:02.754Z,79.11
2023-10-10T20:59:35.498Z,79.16
2023-10-10T21:02:08.231Z,79.25
2023-10-10T21:04:40.166Z,79.14
2023-10-10T21:07:12.206Z,79.25
2023-10-10T21:09:44.597Z,79.37
2023-10-10T21:12:16.621Z,79.39
2023-10-10T21:14:48.878Z,79.34
2023-10-10T21:17:20.873Z,79.45
2023-10-10T21:19:53.000Z,79.40
2023-10-10T21:22:24.827Z,79.46
2023-10-10T21:24:55.218Z,79.46
2023-10-10T21:27:27.031Z,79.44
2023-10-10T21:29:58.539Z,79.49
2023-10-10T21:32:31.837Z,79.54
2023-10-10T21:35:09.953Z,79.65
2023-10-10T21:37:44.547Z,79.53
2023-10-10T21:40:21.454Z,79.48
2023-10-10T21:42:55.215Z,79.58
2023-10-10T21:45:33.559Z,79.60
2023-10-10T21:48:06.998Z,79.57
2023-10-10T21:50:41.976Z,79.47
2023-10-10T21:53:14.180Z,79.52
2023-10-10T21:55:44.569Z,79.59
2023-10-10T21:58:16.512Z,79.60
2023-10-10T22:00:56.499Z,79.48
2023-10-10T22:03:28.936Z,79.42
2023-10-10T22:06:02.871Z,79.27
2023-10-10T22:08:37.807Z,79.37
2023-10-10T22:11:10.093Z,79.30
2023-10-10T22:13:42.057Z,79.31
2023-10-10T22:16:13.967Z,79.37
2023-10-10T22:18:48.642Z,79.36
2023-10-10T22:21:23.645Z,79.58
2023-10-10T22:23:56.779Z,79.44
2023-10-10T22:26:28.874Z,79.34
2023-10-10T22:29:00.724Z,79.22
2023-10-10T22:31:32.990Z,79.43
2023-10-10T22:34:09.289Z,79.44
2023-10-10T22:36:42.458Z,79.51
2023-10-10T22:39:17.751Z,79.64
2023-10-10T22:41:49.682Z,79.50
2023-10-10T22:44:20.451Z,79.57
2023-10-10T22:46:50.730Z,79.59
2023-10-10T22:49:22.522Z,79.63
2023-10-10T22:51:54.299Z,79.78
2023-10-10T22:54:26.168Z,79.76
2023-10-10T22:56:57.390Z,79.69
2023-10-10T22:59:29.148Z,79.70
2023-10-10T23:02:01.046Z,79.63
2023-10-10T23:04:35.240Z,79.60
2023-10-10T23:07:08.369Z,79.54
2023-10-10T23:09:42.710Z,79.40
2023-10-10T23:12:15.592Z,79.38
2023-10-10T23:14:47.439Z,79.46
2023-10-10T23:17:21.128Z,79.54
2023-10-10T23:19:52.985Z,79.50
2023-10-10T23:22:24.230Z,79.59
2023-10-10T23:24:56.389Z,79.51
2023-10-10T23:27:28.406Z,79.48
2023-10-10T23:30:00.846Z,79.50
2023-10-10T23:32:32.841Z,79.51
2023-10-10T23:35:09.565Z,79.46
2023-10-10T23:37:43.613Z,79.51
2023-10-10T23:40:17.187Z,79.51
2023-10-10T23:42:52.898Z,79.56
2023-10-10T23:45:25.482Z,79.59
2023-10-10T23:47:59.086Z,79.58
2023-10-10T23:50:39.767Z,79.53
2023-10-10T23:53:14.810Z,79.68
2023-10-10T23:55:48.333Z,79.64
2023-10-10T23:58:22.915Z,79.78
